^^
Station Historical Data
Daily Summary for March 31, 2017 Units:  Metric    English   Both
« Previous Day
Next Day »
Daily Weekly Monthly Yearly Custom
  High: Low: Average:
Temperature: 36.8 °C 25.1 °C 32.2 °C
Dew Point: 4.6 °C -7.4 °C 2.1 °C
Humidity: 18% 11% 15%
Wind Speed: 25.9km/h 0km/h 11.1km/h
Wind Gust: 33.8km/h - -
Wind- - SW
Pressure: 1014.8 hPa 1010.7 hPa -
Precipitation: 0 mm    
Historical Graphs
 
 
Tabular Data for March 31, 2017
Time Temperature Dew Point Pressure Wind Wind Speed Wind Gust Humidity Rainfall Rate (Hourly) solar Conditions
12:01 33.6 °C 4.3 °C 1014.8 hPa North 13 km/h 22.5 km/h 16% 0 mm meteobridge W/m2
12:06 33.8 °C 4.5 °C 1014.8 hPa NNW 14.3 km/h 24.1 km/h 16% 0 mm meteobridge W/m2
12:22 33.7 °C 4.4 °C 1014.4 hPa NNE 17.7 km/h 27.4 km/h 16% 0 mm meteobridge W/m2
12:27 33.8 °C 4.5 °C 1014.1 hPa North 17.7 km/h 24.1 km/h 16% 0 mm meteobridge W/m2
12:31 34.2 °C 3.9 °C 1014.1 hPa North 11.1 km/h 22.5 km/h 15% 0 mm meteobridge W/m2
12:36 34.2 °C 3.9 °C 1014.1 hPa NW 13 km/h 25.7 km/h 15% 0 mm meteobridge W/m2
12:41 34.3 °C 4 °C 1013.8 hPa North 13 km/h 33.8 km/h 15% 0 mm meteobridge W/m2
12:46 34.4 °C 4 °C 1013.8 hPa Calm   22.5 km/h 15% 0 mm meteobridge W/m2
12:51 34.7 °C 4.3 °C 1013.8 hPa North 9.7 km/h 29 km/h 15% 0 mm meteobridge W/m2
12:57 34.6 °C 4.2 °C 1013.4 hPa North 9.7 km/h 25.7 km/h 15% 0 mm meteobridge W/m2
13:08 34.7 °C 4.3 °C 1013.4 hPa NW 13 km/h 25.7 km/h 15% 0 mm meteobridge W/m2
13:16 34.8 °C 3.4 °C 1013.1 hPa NW 13 km/h 25.7 km/h 14% 0 mm meteobridge W/m2
13:22 35.2 °C 3.7 °C 1013.1 hPa North 7.9 km/h 17.7 km/h 14% 0 mm meteobridge W/m2
13:31 35.6 °C 4 °C 1012.8 hPa North 17.7 km/h 25.7 km/h 14% 0 mm meteobridge W/m2
13:36 35.5 °C 3.9 °C 1012.8 hPa NNW 11.1 km/h 17.7 km/h 14% 0 mm meteobridge W/m2
13:42 35.5 °C 3.9 °C 1012.8 hPa NNE 6.4 km/h 20.9 km/h 14% 0 mm meteobridge W/m2
13:47 35.6 °C 4 °C 1012.8 hPa NW 7.9 km/h 19.3 km/h 14% 0 mm meteobridge W/m2
14:07 35.9 °C 4.2 °C 1012.4 hPa Calm   24.1 km/h 14% 0 mm meteobridge W/m2
14:24 35.7 °C 4.1 °C 1012.1 hPa North 9.7 km/h 27.4 km/h 14% 0 mm meteobridge W/m2
14:25 36 °C 4.3 °C 1012.1 hPa NW 17.7 km/h 19.3 km/h 14% 0 mm meteobridge W/m2
14:43 35.8 °C 4.2 °C 1011.7 hPa North 11.1 km/h 17.7 km/h 14% 0 mm meteobridge W/m2
14:50 36.3 °C 3.5 °C 1011.7 hPa NW 9.7 km/h 22.5 km/h 13% 0 mm meteobridge W/m2
15:01 35.8 °C 4.2 °C 1011.4 hPa NNW 14.3 km/h 22.5 km/h 14% 0 mm meteobridge W/m2
15:16 36.4 °C 3.6 °C 1011.4 hPa Calm   11.3 km/h 13% 0 mm meteobridge W/m2
15:31 36.5 °C 3.6 °C 1011.1 hPa WNW 11.1 km/h 22.5 km/h 13% 0 mm meteobridge W/m2
15:39 36.5 °C 3.6 °C 1011.1 hPa WNW 11.1 km/h 22.5 km/h 13% 0 mm meteobridge W/m2
15:46 36.8 °C 3.9 °C 1010.7 hPa NW 3.2 km/h 16.1 km/h 13% 0 mm meteobridge W/m2
16:07 36.4 °C 4.6 °C 1010.7 hPa WNW 13 km/h 24.1 km/h 14% 0 mm meteobridge W/m2
16:16 36.1 °C 4.4 °C 1010.7 hPa WNW 11.1 km/h 12.9 km/h 14% 0 mm meteobridge W/m2
16:26 35.9 °C 4.2 °C 1010.7 hPa WSW 7.9 km/h 8 km/h 14% 0 mm meteobridge W/m2
16:34 35.9 °C 4.2 °C 1010.7 hPa Calm     14% 0 mm meteobridge W/m2
18:39 31.6 °C 0.9 °C 1011.7 hPa SSW 25.9 km/h 25.9 km/h 14% 0 mm meteobridge W/m2
19:01 30.9 °C 2.2 °C 1011.7 hPa SW 24.1 km/h 25.7 km/h 16% 0 mm meteobridge W/m2
19:09 30.3 °C 2.5 °C 1012.1 hPa SSW 20.9 km/h 25.7 km/h 17% 0 mm meteobridge W/m2
19:16 30.3 °C 2.5 °C 1012.1 hPa SSW 20.9 km/h 25.7 km/h 17% 0 mm meteobridge W/m2
19:32 30 °C 2.3 °C 1012.4 hPa SSW 17.7 km/h 24.1 km/h 17% 0 mm meteobridge W/m2
19:44 29.5 °C 1.9 °C 1012.4 hPa SSW 19.5 km/h 24.1 km/h 17% 0 mm meteobridge W/m2
19:49 29.2 °C 2.4 °C 1012.8 hPa SSW 7.9 km/h 14.5 km/h 18% 0 mm meteobridge W/m2
20:04 28.9 °C 2.2 °C 1013.1 hPa SSW 14.3 km/h 19.3 km/h 18% 0 mm meteobridge W/m2
20:19 28.6 °C 2 °C 1013.1 hPa SSW 19.5 km/h 20.9 km/h 18% 0 mm meteobridge W/m2
20:28 28.6 °C 2 °C 1013.1 hPa SSW 19.5 km/h 20.9 km/h 18% 0 mm meteobridge W/m2
20:43 28.3 °C 0.9 °C 1013.1 hPa SSW 14.3 km/h 19.3 km/h 17% 0 mm meteobridge W/m2
20:55 27.8 °C 0.5 °C 1013.4 hPa SSW 14.3 km/h 16.1 km/h 17% 0 mm meteobridge W/m2
20:59 27.6 °C -0.5 °C 1013.4 hPa SSW 14.3 km/h 17.7 km/h 16% 0 mm meteobridge W/m2
21:16 27.5 °C -1.4 °C 1013.4 hPa SSW 11.1 km/h 12.9 km/h 15% 0 mm meteobridge W/m2
21:24 26.9 °C -1.9 °C 1013.4 hPa SSW 7.9 km/h 12.9 km/h 15% 0 mm meteobridge W/m2
21:47 27.1 °C -2.7 °C 1013.8 hPa SSW 3.2 km/h 8 km/h 14% 0 mm meteobridge W/m2
21:55 26.4 °C -2.3 °C 1014.1 hPa Calm     15% 0 mm meteobridge W/m2
22:18 26 °C -3.6 °C 1014.1 hPa Calm     14% 0 mm meteobridge W/m2
22:26 25.6 °C -3.9 °C 1014.1 hPa Calm     14% 0 mm meteobridge W/m2
22:34 25.6 °C -3.9 °C 1014.1 hPa Calm     14% 0 mm meteobridge W/m2
22:41 25.3 °C -4.1 °C 1014.4 hPa SSW 7.9 km/h 8 km/h 14% 0 mm meteobridge W/m2
22:56 25.1 °C -5.3 °C 1014.1 hPa SSW 7.9 km/h 11.3 km/h 13% 0 mm meteobridge W/m2
23:15 25.2 °C -7.4 °C 1014.1 hPa SSW 11.1 km/h 12.9 km/h 11% 0 mm meteobridge W/m2
Canyon Roadhouse, Fishriver Canyon, Namibia
Compliments of Weather Underground - 1.75 mb